sensor_id;sensor_type;location;lat;lon;timestamp;temperature;humidity
63802;DHT22;49949;43.060;25.624;2022-10-20T00:01:09;6.10;99.90
63802;DHT22;49949;43.060;25.624;2022-10-20T00:03:35;6.00;99.90
63802;DHT22;49949;43.060;25.624;2022-10-20T00:08:33;5.90;99.90
63802;DHT22;49949;43.060;25.624;2022-10-20T00:10:59;5.90;99.90
63802;DHT22;49949;43.060;25.624;2022-10-20T00:13:24;5.90;99.90
63802;DHT22;49949;43.060;25.624;2022-10-20T00:15:52;5.80;99.90
63802;DHT22;49949;43.060;25.624;2022-10-20T00:18:18;5.80;99.90
63802;DHT22;49949;43.060;25.624;2022-10-20T00:20:44;5.80;99.90
63802;DHT22;49949;43.060;25.624;2022-10-20T00:23:10;5.80;99.90
63802;DHT22;49949;43.060;25.624;2022-10-20T00:25:36;5.80;99.90
63802;DHT22;49949;43.060;25.624;2022-10-20T00:28:02;5.70;99.90
63802;DHT22;49949;43.060;25.624;2022-10-20T00:30:27;5.80;99.90
63802;DHT22;49949;43.060;25.624;2022-10-20T00:32:53;5.80;99.90
63802;DHT22;49949;43.060;25.624;2022-10-20T00:35:19;5.80;99.90
63802;DHT22;49949;43.060;25.624;2022-10-20T00:37:45;5.80;99.90
63802;DHT22;49949;43.060;25.624;2022-10-20T00:40:10;5.80;99.90
63802;DHT22;49949;43.060;25.624;2022-10-20T00:42:36;5.80;99.90
63802;DHT22;49949;43.060;25.624;2022-10-20T00:45:03;5.70;99.90
63802;DHT22;49949;43.060;25.624;2022-10-20T00:47:40;5.70;99.90
63802;DHT22;49949;43.060;25.624;2022-10-20T00:50:19;5.60;99.90
63802;DHT22;49949;43.060;25.624;2022-10-20T00:52:45;5.60;99.90
63802;DHT22;49949;43.060;25.624;2022-10-20T00:55:15;5.60;99.90
63802;DHT22;49949;43.060;25.624;2022-10-20T00:57:46;5.60;99.90
63802;DHT22;49949;43.060;25.624;2022-10-20T01:00:13;5.60;99.90
63802;DHT22;49949;43.060;25.624;2022-10-20T01:02:39;5.50;99.90
63802;DHT22;49949;43.060;25.624;2022-10-20T01:05:05;5.40;99.90
63802;DHT22;49949;43.060;25.624;2022-10-20T01:07:31;5.40;99.90
63802;DHT22;49949;43.060;25.624;2022-10-20T01:09:57;5.50;99.90
63802;DHT22;49949;43.060;25.624;2022-10-20T01:15:33;5.40;99.90
63802;DHT22;49949;43.060;25.624;2022-10-20T01:18:16;5.40;99.90
63802;DHT22;49949;43.060;25.624;2022-10-20T01:26:26;5.40;99.90
63802;DHT22;49949;43.060;25.624;2022-10-20T01:29:08;5.40;99.90
63802;DHT22;49949;43.060;25.624;2022-10-20T01:39:53;5.30;99.90
63802;DHT22;49949;43.060;25.624;2022-10-20T01:42:24;5.30;99.90
63802;DHT22;49949;43.060;25.624;2022-10-20T01:44:55;5.30;99.90
63802;DHT22;49949;43.060;25.624;2022-10-20T01:47:24;5.30;99.90
63802;DHT22;49949;43.060;25.624;2022-10-20T01:49:52;5.30;99.90
63802;DHT22;49949;43.060;25.624;2022-10-20T01:52:19;5.30;99.90
63802;DHT22;49949;43.060;25.624;2022-10-20T01:54:45;5.20;99.90
63802;DHT22;49949;43.060;25.624;2022-10-20T02:00:15;5.20;99.90
63802;DHT22;49949;43.060;25.624;2022-10-20T02:07:58;5.30;99.90
63802;DHT22;49949;43.060;25.624;2022-10-20T02:10:32;5.30;99.90
63802;DHT22;49949;43.060;25.624;2022-10-20T02:13:03;5.30;99.90
63802;DHT22;49949;43.060;25.624;2022-10-20T02:15:31;5.30;99.90
63802;DHT22;49949;43.060;25.624;2022-10-20T02:18:05;5.30;99.90
63802;DHT22;49949;43.060;25.624;2022-10-20T02:20:32;5.30;99.90
63802;DHT22;49949;43.060;25.624;2022-10-20T02:22:59;5.30;99.90
63802;DHT22;49949;43.060;25.624;2022-10-20T02:25:25;5.40;99.90
63802;DHT22;49949;43.060;25.624;2022-10-20T02:27:52;5.50;99.90
63802;DHT22;49949;43.060;25.624;2022-10-20T02:30:19;5.50;99.90
63802;DHT22;49949;43.060;25.624;2022-10-20T02:32:48;5.50;99.90
63802;DHT22;49949;43.060;25.624;2022-10-20T02:35:26;5.50;99.90
63802;DHT22;49949;43.060;25.624;2022-10-20T02:37:54;5.40;99.90
63802;DHT22;49949;43.060;25.624;2022-10-20T02:40:20;5.40;99.90
63802;DHT22;49949;43.060;25.624;2022-10-20T02:42:46;5.30;99.90
63802;DHT22;49949;43.060;25.624;2022-10-20T02:45:12;5.30;99.90
63802;DHT22;49949;43.060;25.624;2022-10-20T02:47:38;5.30;99.90
63802;DHT22;49949;43.060;25.624;2022-10-20T02:50:04;5.30;99.90
63802;DHT22;49949;43.060;25.624;2022-10-20T02:52:30;5.30;99.90
63802;DHT22;49949;43.060;25.624;2022-10-20T02:54:56;5.30;99.90
63802;DHT22;49949;43.060;25.624;2022-10-20T02:57:22;5.30;99.90
63802;DHT22;49949;43.060;25.624;2022-10-20T02:59:47;5.30;99.90
63802;DHT22;49949;43.060;25.624;2022-10-20T03:02:13;5.30;99.90
63802;DHT22;49949;43.060;25.624;2022-10-20T03:04:39;5.30;99.90
63802;DHT22;49949;43.060;25.624;2022-10-20T03:07:04;5.30;99.90
63802;DHT22;49949;43.060;25.624;2022-10-20T03:09:30;5.20;99.90
63802;DHT22;49949;43.060;25.624;2022-10-20T03:11:56;5.20;99.90
63802;DHT22;49949;43.060;25.624;2022-10-20T03:14:21;5.20;99.90
63802;DHT22;49949;43.060;25.624;2022-10-20T03:16:47;5.10;99.90
63802;DHT22;49949;43.060;25.624;2022-10-20T03:19:13;5.20;99.90
63802;DHT22;49949;43.060;25.624;2022-10-20T03:21:38;5.20;99.90
63802;DHT22;49949;43.060;25.624;2022-10-20T03:24:04;5.20;99.90
63802;DHT22;49949;43.060;25.624;2022-10-20T03:26:30;5.30;99.90
63802;DHT22;49949;43.060;25.624;2022-10-20T03:28:56;5.30;99.90
63802;DHT22;49949;43.060;25.624;2022-10-20T03:31:21;5.30;99.90
63802;DHT22;49949;43.060;25.624;2022-10-20T03:33:47;5.30;99.90
63802;DHT22;49949;43.060;25.624;2022-10-20T03:36:12;5.30;99.90
63802;DHT22;49949;43.060;25.624;2022-10-20T03:38:40;5.30;99.90
63802;DHT22;49949;43.060;25.624;2022-10-20T03:41:07;5.30;99.90
63802;DHT22;49949;43.060;25.624;2022-10-20T03:43:33;5.30;99.90
63802;DHT22;49949;43.060;25.624;2022-10-20T03:46:17;5.30;99.90
63802;DHT22;49949;43.060;25.624;2022-10-20T03:48:43;5.30;99.90
63802;DHT22;49949;43.060;25.624;2022-10-20T03:51:11;5.30;99.90
63802;DHT22;49949;43.060;25.624;2022-10-20T03:53:37;5.20;99.90
63802;DHT22;49949;43.060;25.624;2022-10-20T03:56:13;5.20;99.90
63802;DHT22;49949;43.060;25.624;2022-10-20T03:58:40;5.20;99.90
63802;DHT22;49949;43.060;25.624;2022-10-20T04:01:06;5.20;99.90
63802;DHT22;49949;43.060;25.624;2022-10-20T04:03:33;5.20;99.90
63802;DHT22;49949;43.060;25.624;2022-10-20T04:05:59;5.30;99.90
63802;DHT22;49949;43.060;25.624;2022-10-20T04:08:25;5.30;99.90
63802;DHT22;49949;43.060;25.624;2022-10-20T04:10:50;5.30;99.90
63802;DHT22;49949;43.060;25.624;2022-10-20T04:13:16;5.30;99.90
63802;DHT22;49949;43.060;25.624;2022-10-20T04:15:42;5.40;99.90
63802;DHT22;49949;43.060;25.624;2022-10-20T04:18:07;5.30;99.90
63802;DHT22;49949;43.060;25.624;2022-10-20T04:20:33;5.40;99.90
63802;DHT22;49949;43.060;25.624;2022-10-20T04:22:59;5.40;99.90
63802;DHT22;49949;43.060;25.624;2022-10-20T04:25:24;5.40;99.90
63802;DHT22;49949;43.060;25.624;2022-10-20T04:27:50;5.50;99.90
63802;DHT22;49949;43.060;25.624;2022-10-20T04:30:16;5.50;99.90
63802;DHT22;49949;43.060;25.624;2022-10-20T04:32:41;5.50;99.90
63802;DHT22;49949;43.060;25.624;2022-10-20T04:35:07;5.60;99.90
63802;DHT22;49949;43.060;25.624;2022-10-20T04:37:33;5.60;99.90
63802;DHT22;49949;43.060;25.624;2022-10-20T04:39:59;5.60;99.90
63802;DHT22;49949;43.060;25.624;2022-10-20T04:42:24;5.60;99.90
63802;DHT22;49949;43.060;25.624;2022-10-20T04:44:50;5.60;99.90
63802;DHT22;49949;43.060;25.624;2022-10-20T04:47:16;5.60;99.90
63802;DHT22;49949;43.060;25.624;2022-10-20T04:49:41;5.60;99.90
63802;DHT22;49949;43.060;25.624;2022-10-20T04:52:08;5.60;99.90
63802;DHT22;49949;43.060;25.624;2022-10-20T04:54:34;5.70;99.90
63802;DHT22;49949;43.060;25.624;2022-10-20T04:57:00;5.70;99.90
63802;DHT22;49949;43.060;25.624;2022-10-20T04:59:25;5.70;99.90
63802;DHT22;49949;43.060;25.624;2022-10-20T05:01:51;5.70;99.90
63802;DHT22;49949;43.060;25.624;2022-10-20T05:04:17;5.70;99.90
63802;DHT22;49949;43.060;25.624;2022-10-20T05:06:46;5.70;99.90
63802;DHT22;49949;43.060;25.624;2022-10-20T05:09:12;5.80;99.90
63802;DHT22;49949;43.060;25.624;2022-10-20T05:11:40;5.80;99.90
63802;DHT22;49949;43.060;25.624;2022-10-20T05:14:05;5.80;99.90
63802;DHT22;49949;43.060;25.624;2022-10-20T05:16:32;5.80;99.90
63802;DHT22;49949;43.060;25.624;2022-10-20T05:18:58;5.90;99.90
63802;DHT22;49949;43.060;25.624;2022-10-20T05:21:26;6.00;99.90
63802;DHT22;49949;43.060;25.624;2022-10-20T05:24:00;6.00;99.90
63802;DHT22;49949;43.060;25.624;2022-10-20T05:26:27;6.10;99.90
63802;DHT22;49949;43.060;25.624;2022-10-20T05:28:54;6.20;99.90
63802;DHT22;49949;43.060;25.624;2022-10-20T05:31:21;6.30;99.90
63802;DHT22;49949;43.060;25.624;2022-10-20T05:33:49;6.40;99.90
63802;DHT22;49949;43.060;25.624;2022-10-20T05:36:17;6.50;99.90
63802;DHT22;49949;43.060;25.624;2022-10-20T05:38:44;6.50;99.90
63802;DHT22;49949;43.060;25.624;2022-10-20T05:41:12;6.50;99.90
63802;DHT22;49949;43.060;25.624;2022-10-20T05:43:38;6.60;99.90
63802;DHT22;49949;43.060;25.624;2022-10-20T05:46:04;6.80;99.90
63802;DHT22;49949;43.060;25.624;2022-10-20T05:48:31;6.80;99.90
63802;DHT22;49949;43.060;25.624;2022-10-20T05:51:09;6.90;99.90
63802;DHT22;49949;43.060;25.624;2022-10-20T05:53:36;7.00;99.90
63802;DHT22;49949;43.060;25.624;2022-10-20T05:56:06;7.20;99.90
63802;DHT22;49949;43.060;25.624;2022-10-20T05:58:32;7.20;99.90
63802;DHT22;49949;43.060;25.624;2022-10-20T06:01:18;7.40;99.90
63802;DHT22;49949;43.060;25.624;2022-10-20T06:03:52;7.40;99.90
63802;DHT22;49949;43.060;25.624;2022-10-20T06:06:20;7.60;99.90
63802;DHT22;49949;43.060;25.624;2022-10-20T06:08:46;7.70;99.90
63802;DHT22;49949;43.060;25.624;2022-10-20T06:11:13;7.90;99.90
63802;DHT22;49949;43.060;25.624;2022-10-20T06:13:40;8.00;99.90
63802;DHT22;49949;43.060;25.624;2022-10-20T06:16:08;8.20;99.90
63802;DHT22;49949;43.060;25.624;2022-10-20T06:18:34;8.30;99.90
63802;DHT22;49949;43.060;25.624;2022-10-20T06:21:06;8.40;99.90
63802;DHT22;49949;43.060;25.624;2022-10-20T06:23:32;8.50;99.90
63802;DHT22;49949;43.060;25.624;2022-10-20T06:26:03;8.70;99.90
63802;DHT22;49949;43.060;25.624;2022-10-20T06:28:30;8.80;99.90
63802;DHT22;49949;43.060;25.624;2022-10-20T06:30:56;8.90;99.90
63802;DHT22;49949;43.060;25.624;2022-10-20T06:33:22;9.10;99.90
63802;DHT22;49949;43.060;25.624;2022-10-20T06:35:48;9.30;99.90
63802;DHT22;49949;43.060;25.624;2022-10-20T06:38:13;9.40;99.90
63802;DHT22;49949;43.060;25.624;2022-10-20T06:40:39;9.60;99.90
63802;DHT22;49949;43.060;25.624;2022-10-20T06:43:05;9.80;99.90
63802;DHT22;49949;43.060;25.624;2022-10-20T06:45:31;9.90;99.90
63802;DHT22;49949;43.060;25.624;2022-10-20T06:47:57;10.20;99.90
63802;DHT22;49949;43.060;25.624;2022-10-20T06:50:22;10.40;99.90
63802;DHT22;49949;43.060;25.624;2022-10-20T06:52:48;10.60;99.90
63802;DHT22;49949;43.060;25.624;2022-10-20T06:55:14;11.00;99.90
63802;DHT22;49949;43.060;25.624;2022-10-20T06:57:39;11.20;99.90
63802;DHT22;49949;43.060;25.624;2022-10-20T07:00:07;11.40;99.90
63802;DHT22;49949;43.060;25.624;2022-10-20T07:02:33;11.60;99.90
63802;DHT22;49949;43.060;25.624;2022-10-20T07:04:58;11.90;99.90
63802;DHT22;49949;43.060;25.624;2022-10-20T07:07:24;12.10;99.90
63802;DHT22;49949;43.060;25.624;2022-10-20T07:09:49;12.50;99.90
63802;DHT22;49949;43.060;25.624;2022-10-20T07:12:15;12.80;99.90
63802;DHT22;49949;43.060;25.624;2022-10-20T07:14:41;13.10;99.90
63802;DHT22;49949;43.060;25.624;2022-10-20T07:17:06;13.30;99.90
63802;DHT22;49949;43.060;25.624;2022-10-20T07:19:32;13.40;99.90
63802;DHT22;49949;43.060;25.624;2022-10-20T07:21:58;13.60;99.90
63802;DHT22;49949;43.060;25.624;2022-10-20T07:24:24;13.80;99.90
63802;DHT22;49949;43.060;25.624;2022-10-20T07:26:49;14.00;99.90
63802;DHT22;49949;43.060;25.624;2022-10-20T07:29:15;14.10;99.90
63802;DHT22;49949;43.060;25.624;2022-10-20T07:31:45;14.20;99.90
63802;DHT22;49949;43.060;25.624;2022-10-20T07:34:13;14.20;99.90
63802;DHT22;49949;43.060;25.624;2022-10-20T07:36:41;14.10;99.90
63802;DHT22;49949;43.060;25.624;2022-10-20T07:39:09;14.30;99.90
63802;DHT22;49949;43.060;25.624;2022-10-20T07:41:37;14.30;99.90
63802;DHT22;49949;43.060;25.624;2022-10-20T07:44:04;14.40;99.90
63802;DHT22;49949;43.060;25.624;2022-10-20T07:46:30;14.60;99.90
63802;DHT22;49949;43.060;25.624;2022-10-20T07:48:56;14.70;99.90
63802;DHT22;49949;43.060;25.624;2022-10-20T07:53:52;14.80;99.90
63802;DHT22;49949;43.060;25.624;2022-10-20T07:56:18;15.30;99.90
63802;DHT22;49949;43.060;25.624;2022-10-20T07:58:45;15.50;99.90
63802;DHT22;49949;43.060;25.624;2022-10-20T08:01:11;15.30;99.90
63802;DHT22;49949;43.060;25.624;2022-10-20T08:03:37;14.90;99.90
63802;DHT22;49949;43.060;25.624;2022-10-20T08:06:04;14.90;99.90
63802;DHT22;49949;43.060;25.624;2022-10-20T08:08:30;14.90;99.90
63802;DHT22;49949;43.060;25.624;2022-10-20T08:10:56;14.90;99.90
63802;DHT22;49949;43.060;25.624;2022-10-20T08:13:25;15.00;99.90
63802;DHT22;49949;43.060;25.624;2022-10-20T08:15:51;15.10;99.90
63802;DHT22;49949;43.060;25.624;2022-10-20T08:18:17;15.10;99.90
63802;DHT22;49949;43.060;25.624;2022-10-20T08:20:43;15.30;99.90
63802;DHT22;49949;43.060;25.624;2022-10-20T08:23:13;15.50;99.90
63802;DHT22;49949;43.060;25.624;2022-10-20T08:25:39;15.80;99.90
63802;DHT22;49949;43.060;25.624;2022-10-20T08:28:06;15.80;99.90
63802;DHT22;49949;43.060;25.624;2022-10-20T08:30:32;16.10;99.90
63802;DHT22;49949;43.060;25.624;2022-10-20T08:32:58;16.30;99.90
63802;DHT22;49949;43.060;25.624;2022-10-20T08:35:24;16.40;99.90
63802;DHT22;49949;43.060;25.624;2022-10-20T08:37:49;16.70;99.90
63802;DHT22;49949;43.060;25.624;2022-10-20T08:40:22;17.00;99.90
63802;DHT22;49949;43.060;25.624;2022-10-20T08:42:48;17.10;99.90
63802;DHT22;49949;43.060;25.624;2022-10-20T08:45:20;17.30;99.90
63802;DHT22;49949;43.060;25.624;2022-10-20T08:47:49;17.50;99.90
63802;DHT22;49949;43.060;25.624;2022-10-20T08:50:17;17.60;99.90
63802;DHT22;49949;43.060;25.624;2022-10-20T08:52:45;17.70;99.90
63802;DHT22;49949;43.060;25.624;2022-10-20T08:55:31;17.40;99.90
63802;DHT22;49949;43.060;25.624;2022-10-20T08:58:14;17.60;99.90
63802;DHT22;49949;43.060;25.624;2022-10-20T09:00:41;17.70;99.90
63802;DHT22;49949;43.060;25.624;2022-10-20T09:03:22;17.80;99.90
63802;DHT22;49949;43.060;25.624;2022-10-20T09:06:12;18.00;99.60
63802;DHT22;49949;43.060;25.624;2022-10-20T09:08:39;18.00;98.50
63802;DHT22;49949;43.060;25.624;2022-10-20T09:11:07;18.10;98.50
63802;DHT22;49949;43.060;25.624;2022-10-20T09:13:36;18.10;97.20
63802;DHT22;49949;43.060;25.624;2022-10-20T09:16:05;17.80;96.60
63802;DHT22;49949;43.060;25.624;2022-10-20T09:18:33;17.70;98.10
63802;DHT22;49949;43.060;25.624;2022-10-20T09:23:37;17.50;97.80
63802;DHT22;49949;43.060;25.624;2022-10-20T09:26:09;17.40;97.70
63802;DHT22;49949;43.060;25.624;2022-10-20T09:28:35;17.40;98.20
63802;DHT22;49949;43.060;25.624;2022-10-20T09:31:01;17.40;98.00
63802;DHT22;49949;43.060;25.624;2022-10-20T09:33:32;17.50;96.90
63802;DHT22;49949;43.060;25.624;2022-10-20T09:36:01;17.60;98.30
63802;DHT22;49949;43.060;25.624;2022-10-20T09:38:27;17.80;98.40
63802;DHT22;49949;43.060;25.624;2022-10-20T09:41:00;17.90;97.80
63802;DHT22;49949;43.060;25.624;2022-10-20T09:43:26;17.70;96.70
63802;DHT22;49949;43.060;25.624;2022-10-20T09:45:55;17.70;96.90
63802;DHT22;49949;43.060;25.624;2022-10-20T09:48:28;17.90;97.40
63802;DHT22;49949;43.060;25.624;2022-10-20T09:50:55;18.00;96.30
63802;DHT22;49949;43.060;25.624;2022-10-20T09:53:28;18.00;95.90
63802;DHT22;49949;43.060;25.624;2022-10-20T09:55:56;18.10;95.40
63802;DHT22;49949;43.060;25.624;2022-10-20T10:00:57;18.20;95.80
63802;DHT22;49949;43.060;25.624;2022-10-20T10:03:24;18.20;94.30
63802;DHT22;49949;43.060;25.624;2022-10-20T10:05:58;18.20;93.80
63802;DHT22;49949;43.060;25.624;2022-10-20T10:08:41;18.10;94.40
63802;DHT22;49949;43.060;25.624;2022-10-20T10:11:17;18.30;94.30
63802;DHT22;49949;43.060;25.624;2022-10-20T10:13:45;18.20;93.20
63802;DHT22;49949;43.060;25.624;2022-10-20T10:16:13;18.20;94.10
63802;DHT22;49949;43.060;25.624;2022-10-20T10:18:40;18.20;93.10
63802;DHT22;49949;43.060;25.624;2022-10-20T10:21:10;18.20;93.40
63802;DHT22;49949;43.060;25.624;2022-10-20T10:26:54;18.10;92.30
63802;DHT22;49949;43.060;25.624;2022-10-20T10:29:27;18.00;92.30
63802;DHT22;49949;43.060;25.624;2022-10-20T10:32:15;18.10;92.50
63802;DHT22;49949;43.060;25.624;2022-10-20T10:37:26;18.20;91.30
63802;DHT22;49949;43.060;25.624;2022-10-20T10:39:52;18.30;91.90
63802;DHT22;49949;43.060;25.624;2022-10-20T10:55:49;18.70;88.30
63802;DHT22;49949;43.060;25.624;2022-10-20T11:03:42;18.80;88.60
63802;DHT22;49949;43.060;25.624;2022-10-20T11:13:55;18.90;86.10
63802;DHT22;49949;43.060;25.624;2022-10-20T11:16:31;18.90;86.70
63802;DHT22;49949;43.060;25.624;2022-10-20T11:24:11;18.90;85.30
63802;DHT22;49949;43.060;25.624;2022-10-20T11:26:43;19.00;86.10
63802;DHT22;49949;43.060;25.624;2022-10-20T11:29:34;19.10;84.80
63802;DHT22;49949;43.060;25.624;2022-10-20T11:34:55;19.20;85.60
63802;DHT22;49949;43.060;25.624;2022-10-20T11:40:34;19.10;83.40
63802;DHT22;49949;43.060;25.624;2022-10-20T11:43:16;19.30;83.90
63802;DHT22;49949;43.060;25.624;2022-10-20T11:45:47;19.30;83.60
63802;DHT22;49949;43.060;25.624;2022-10-20T11:48:35;19.20;84.10
63802;DHT22;49949;43.060;25.624;2022-10-20T11:59:22;19.60;82.50
63802;DHT22;49949;43.060;25.624;2022-10-20T12:13:32;19.60;79.50
63802;DHT22;49949;43.060;25.624;2022-10-20T12:15:59;19.60;79.50
63802;DHT22;49949;43.060;25.624;2022-10-20T12:18:35;19.50;79.50
63802;DHT22;49949;43.060;25.624;2022-10-20T12:21:08;19.50;79.20
63802;DHT22;49949;43.060;25.624;2022-10-20T12:28:58;19.70;81.30
63802;DHT22;49949;43.060;25.624;2022-10-20T12:31:24;19.80;78.00
63802;DHT22;49949;43.060;25.624;2022-10-20T12:38:46;19.50;78.20
63802;DHT22;49949;43.060;25.624;2022-10-20T12:41:34;19.60;78.50
63802;DHT22;49949;43.060;25.624;2022-10-20T12:44:16;19.50;79.30
63802;DHT22;49949;43.060;25.624;2022-10-20T12:46:53;19.40;79.50
63802;DHT22;49949;43.060;25.624;2022-10-20T12:49:39;19.40;78.60
63802;DHT22;49949;43.060;25.624;2022-10-20T12:52:14;19.40;78.60
63802;DHT22;49949;43.060;25.624;2022-10-20T12:54:41;19.30;78.10
63802;DHT22;49949;43.060;25.624;2022-10-20T12:57:38;19.20;78.20
63802;DHT22;49949;43.060;25.624;2022-10-20T13:02:54;19.00;77.00
63802;DHT22;49949;43.060;25.624;2022-10-20T13:08:21;19.20;76.00
63802;DHT22;49949;43.060;25.624;2022-10-20T13:10:48;19.20;75.30
63802;DHT22;49949;43.060;25.624;2022-10-20T13:28:46;19.40;75.20
63802;DHT22;49949;43.060;25.624;2022-10-20T13:50:54;19.20;74.70
63802;DHT22;49949;43.060;25.624;2022-10-20T13:53:29;19.20;75.30
63802;DHT22;49949;43.060;25.624;2022-10-20T13:56:01;19.20;74.90
63802;DHT22;49949;43.060;25.624;2022-10-20T13:58:29;19.10;76.00
63802;DHT22;49949;43.060;25.624;2022-10-20T14:00:59;19.10;75.10
63802;DHT22;49949;43.060;25.624;2022-10-20T14:03:26;19.10;75.50
63802;DHT22;49949;43.060;25.624;2022-10-20T14:05:53;19.00;75.30
63802;DHT22;49949;43.060;25.624;2022-10-20T14:08:20;19.10;76.00
63802;DHT22;49949;43.060;25.624;2022-10-20T14:10:57;19.00;75.80
63802;DHT22;49949;43.060;25.624;2022-10-20T14:13:27;19.00;76.20
63802;DHT22;49949;43.060;25.624;2022-10-20T14:15:57;18.90;75.80
63802;DHT22;49949;43.060;25.624;2022-10-20T14:20:59;18.90;77.60
63802;DHT22;49949;43.060;25.624;2022-10-20T14:23:27;18.80;77.40
63802;DHT22;49949;43.060;25.624;2022-10-20T14:25:55;18.80;77.30
63802;DHT22;49949;43.060;25.624;2022-10-20T14:28:21;18.70;78.00
63802;DHT22;49949;43.060;25.624;2022-10-20T14:30:49;18.70;77.50
63802;DHT22;49949;43.060;25.624;2022-10-20T14:33:17;18.70;77.40
63802;DHT22;49949;43.060;25.624;2022-10-20T14:35:44;18.60;77.00
63802;DHT22;49949;43.060;25.624;2022-10-20T14:40:49;18.60;76.70
63802;DHT22;49949;43.060;25.624;2022-10-20T14:43:39;18.60;76.10
63802;DHT22;49949;43.060;25.624;2022-10-20T14:46:09;18.60;76.90
63802;DHT22;49949;43.060;25.624;2022-10-20T14:48:44;18.60;77.30
63802;DHT22;49949;43.060;25.624;2022-10-20T14:51:36;18.50;78.60
63802;DHT22;49949;43.060;25.624;2022-10-20T14:59:19;18.30;80.10
63802;DHT22;49949;43.060;25.624;2022-10-20T15:02:01;18.10;80.20
63802;DHT22;49949;43.060;25.624;2022-10-20T15:04:34;18.00;81.00
63802;DHT22;49949;43.060;25.624;2022-10-20T15:07:06;17.90;80.70
63802;DHT22;49949;43.060;25.624;2022-10-20T15:12:25;17.60;83.00
63802;DHT22;49949;43.060;25.624;2022-10-20T15:15:01;17.40;84.20
63802;DHT22;49949;43.060;25.624;2022-10-20T15:17:43;17.20;86.00
63802;DHT22;49949;43.060;25.624;2022-10-20T15:22:53;16.70;88.30
63802;DHT22;49949;43.060;25.624;2022-10-20T15:25:19;16.50;89.70
63802;DHT22;49949;43.060;25.624;2022-10-20T15:27:45;16.30;90.60
63802;DHT22;49949;43.060;25.624;2022-10-20T15:30:21;16.10;91.00
63802;DHT22;49949;43.060;25.624;2022-10-20T15:32:47;15.80;92.10
63802;DHT22;49949;43.060;25.624;2022-10-20T15:35:16;15.60;93.20
63802;DHT22;49949;43.060;25.624;2022-10-20T15:37:50;15.40;94.40
63802;DHT22;49949;43.060;25.624;2022-10-20T15:40:17;15.20;94.90
63802;DHT22;49949;43.060;25.624;2022-10-20T15:42:43;15.00;96.20
63802;DHT22;49949;43.060;25.624;2022-10-20T15:45:20;14.80;97.30
63802;DHT22;49949;43.060;25.624;2022-10-20T15:47:46;14.60;98.20
63802;DHT22;49949;43.060;25.624;2022-10-20T15:50:12;14.50;98.60
63802;DHT22;49949;43.060;25.624;2022-10-20T15:52:38;14.40;99.00
63802;DHT22;49949;43.060;25.624;2022-10-20T15:55:19;14.30;99.90
63802;DHT22;49949;43.060;25.624;2022-10-20T15:57:51;14.10;99.90
63802;DHT22;49949;43.060;25.624;2022-10-20T16:00:18;13.90;99.90
63802;DHT22;49949;43.060;25.624;2022-10-20T16:02:44;13.70;99.90
63802;DHT22;49949;43.060;25.624;2022-10-20T16:05:10;13.60;99.90
63802;DHT22;49949;43.060;25.624;2022-10-20T16:07:36;13.40;99.90
63802;DHT22;49949;43.060;25.624;2022-10-20T16:10:06;13.20;99.90
63802;DHT22;49949;43.060;25.624;2022-10-20T16:12:32;13.10;99.90
63802;DHT22;49949;43.060;25.624;2022-10-20T16:14:58;13.00;99.90
63802;DHT22;49949;43.060;25.624;2022-10-20T16:17:23;12.90;99.90
63802;DHT22;49949;43.060;25.624;2022-10-20T16:19:49;12.80;99.90
63802;DHT22;49949;43.060;25.624;2022-10-20T16:22:15;12.70;99.90
63802;DHT22;49949;43.060;25.624;2022-10-20T16:24:40;12.60;99.90
63802;DHT22;49949;43.060;25.624;2022-10-20T16:27:06;12.50;99.90
63802;DHT22;49949;43.060;25.624;2022-10-20T16:29:32;12.30;99.90
63802;DHT22;49949;43.060;25.624;2022-10-20T16:31:58;12.30;99.90
63802;DHT22;49949;43.060;25.624;2022-10-20T16:34:26;12.20;99.90
63802;DHT22;49949;43.060;25.624;2022-10-20T16:36:52;12.10;99.90
63802;DHT22;49949;43.060;25.624;2022-10-20T16:39:17;11.90;99.90
63802;DHT22;49949;43.060;25.624;2022-10-20T16:41:44;11.90;99.90
63802;DHT22;49949;43.060;25.624;2022-10-20T16:44:10;11.80;99.90
63802;DHT22;49949;43.060;25.624;2022-10-20T16:46:36;11.80;99.90
63802;DHT22;49949;43.060;25.624;2022-10-20T16:49:03;11.60;99.90
63802;DHT22;49949;43.060;25.624;2022-10-20T16:51:29;11.60;99.90
63802;DHT22;49949;43.060;25.624;2022-10-20T16:53:55;11.50;99.90
63802;DHT22;49949;43.060;25.624;2022-10-20T16:56:21;11.40;99.90
63802;DHT22;49949;43.060;25.624;2022-10-20T16:58:48;11.30;99.90
63802;DHT22;49949;43.060;25.624;2022-10-20T17:01:15;11.20;99.90
63802;DHT22;49949;43.060;25.624;2022-10-20T17:03:43;11.20;99.90
63802;DHT22;49949;43.060;25.624;2022-10-20T17:06:10;11.10;99.90
63802;DHT22;49949;43.060;25.624;2022-10-20T17:08:36;11.10;99.90
63802;DHT22;49949;43.060;25.624;2022-10-20T17:11:08;11.00;99.90
63802;DHT22;49949;43.060;25.624;2022-10-20T17:13:35;11.00;99.90
63802;DHT22;49949;43.060;25.624;2022-10-20T17:16:14;10.90;99.90
63802;DHT22;49949;43.060;25.624;2022-10-20T17:18:40;10.80;99.90
63802;DHT22;49949;43.060;25.624;2022-10-20T17:21:06;10.80;99.90
63802;DHT22;49949;43.060;25.624;2022-10-20T17:23:35;10.70;99.90
63802;DHT22;49949;43.060;25.624;2022-10-20T17:26:02;10.70;99.90
63802;DHT22;49949;43.060;25.624;2022-10-20T17:28:29;10.60;99.90
63802;DHT22;49949;43.060;25.624;2022-10-20T17:30:56;10.50;99.90
63802;DHT22;49949;43.060;25.624;2022-10-20T17:33:26;10.40;99.90
63802;DHT22;49949;43.060;25.624;2022-10-20T17:35:52;10.30;99.90
63802;DHT22;49949;43.060;25.624;2022-10-20T17:38:19;10.30;99.90
63802;DHT22;49949;43.060;25.624;2022-10-20T17:40:44;10.20;99.90
63802;DHT22;49949;43.060;25.624;2022-10-20T17:43:10;10.10;99.90
63802;DHT22;49949;43.060;25.624;2022-10-20T17:45:36;10.10;99.90
63802;DHT22;49949;43.060;25.624;2022-10-20T17:48:02;10.00;99.90
63802;DHT22;49949;43.060;25.624;2022-10-20T17:50:28;10.00;99.90
63802;DHT22;49949;43.060;25.624;2022-10-20T17:52:54;9.90;99.90
63802;DHT22;49949;43.060;25.624;2022-10-20T17:55:19;9.90;99.90
63802;DHT22;49949;43.060;25.624;2022-10-20T17:57:45;9.90;99.90
63802;DHT22;49949;43.060;25.624;2022-10-20T18:00:11;9.80;99.90
63802;DHT22;49949;43.060;25.624;2022-10-20T18:02:37;9.80;99.90
63802;DHT22;49949;43.060;25.624;2022-10-20T18:05:03;9.70;99.90
63802;DHT22;49949;43.060;25.624;2022-10-20T18:07:28;9.60;99.90
63802;DHT22;49949;43.060;25.624;2022-10-20T18:09:54;9.60;99.90
63802;DHT22;49949;43.060;25.624;2022-10-20T18:12:20;9.50;99.90
63802;DHT22;49949;43.060;25.624;2022-10-20T18:14:45;9.50;99.90
63802;DHT22;49949;43.060;25.624;2022-10-20T18:17:12;9.40;99.90